createdAt,value
2022-11-24T04:04:26.738Z,77.32
2022-11-24T04:06:56.587Z,77.27
2022-11-24T04:09:23.804Z,75.72
2022-11-24T04:12:09.143Z,73.59
2022-11-24T04:14:36.492Z,71.13
2022-11-24T04:17:04.520Z,69.83
2022-11-24T04:19:31.589Z,68.17
2022-11-24T04:21:58.679Z,67.90
2022-11-24T04:24:25.729Z,67.21
2022-11-24T04:26:52.695Z,66.90
2022-11-24T04:29:19.703Z,66.61
2022-11-24T04:31:46.811Z,66.30
2022-11-24T04:34:13.974Z,65.78
2022-11-24T04:36:41.083Z,65.27
2022-11-24T04:39:23.680Z,65.26
2022-11-24T04:41:53.766Z,65.13
2022-11-24T04:44:20.898Z,65.17
2022-11-24T04:46:48.215Z,64.96
2022-11-24T04:49:15.358Z,64.33
2022-11-24T04:51:42.800Z,64.53
2022-11-24T04:54:12.686Z,63.92
2022-11-24T04:56:41.655Z,63.74
2022-11-24T04:59:13.371Z,63.65
2022-11-24T05:01:44.629Z,63.08
2022-11-24T05:04:14.055Z,62.70
2022-11-24T05:06:41.542Z,62.25
2022-11-24T05:09:08.846Z,62.04
2022-11-24T05:11:35.981Z,61.86
2022-11-24T05:14:03.167Z,61.74
2022-11-24T05:16:30.332Z,61.80
2022-11-24T05:18:57.388Z,61.63
2022-11-24T05:21:24.446Z,61.52
2022-11-24T05:23:51.583Z,61.51
2022-11-24T05:26:18.648Z,61.49
2022-11-24T05:28:45.884Z,61.44
2022-11-24T05:31:13.011Z,60.91
2022-11-24T05:33:40.078Z,61.10
2022-11-24T05:36:08.045Z,60.94
2022-11-24T05:38:35.924Z,60.86
2022-11-24T05:41:05.280Z,60.79
2022-11-24T05:43:32.473Z,60.76
2022-11-24T05:46:00.936Z,60.55
2022-11-24T05:48:28.114Z,60.41
2022-11-24T05:50:57.712Z,60.41
2022-11-24T05:53:26.981Z,60.47
2022-11-24T05:55:54.284Z,60.20
2022-11-24T05:58:21.390Z,60.25
2022-11-24T06:00:48.573Z,60.16
2022-11-24T06:03:15.699Z,60.13
2022-11-24T06:05:47.572Z,60.30
2022-11-24T06:08:15.328Z,60.43
2022-11-24T06:10:42.509Z,60.43
2022-11-24T06:13:09.653Z,60.72
2022-11-24T06:15:37.863Z,60.62
2022-11-24T06:18:05.037Z,60.38
2022-11-24T06:20:33.064Z,60.24
2022-11-24T06:23:01.331Z,60.14
2022-11-24T06:25:30.194Z,59.94
2022-11-24T06:27:57.477Z,59.72
2022-11-24T06:30:24.472Z,60.00
2022-11-24T06:32:55.835Z,59.85
2022-11-24T06:35:22.892Z,59.78
2022-11-24T06:37:49.925Z,59.84
2022-11-24T06:40:17.252Z,59.83
2022-11-24T06:42:51.438Z,59.87
2022-11-24T06:45:18.603Z,59.38
2022-11-24T06:47:45.660Z,59.17
2022-11-24T06:50:12.657Z,59.13
2022-11-24T06:52:39.703Z,59.09
2022-11-24T06:55:07.571Z,58.69
2022-11-24T06:57:35.247Z,58.79
2022-11-24T07:00:07.668Z,58.72
2022-11-24T07:02:34.739Z,58.27
2022-11-24T07:05:01.736Z,58.35
2022-11-24T07:07:29.012Z,58.37
2022-11-24T07:09:56.118Z,58.68
2022-11-24T07:12:24.311Z,58.59
2022-11-24T07:14:51.361Z,58.64
2022-11-24T07:17:18.393Z,58.84
2022-11-24T07:19:45.539Z,58.75
2022-11-24T07:22:12.554Z,58.44
2022-11-24T07:24:39.593Z,58.46
2022-11-24T07:27:06.633Z,58.46
2022-11-24T07:29:33.618Z,58.14
2022-11-24T07:32:05.220Z,58.39
2022-11-24T07:34:33.202Z,58.50
2022-11-24T07:37:00.379Z,58.11
2022-11-24T07:39:27.384Z,58.21
2022-11-24T07:41:54.405Z,58.28
2022-11-24T07:44:21.487Z,58.44
2022-11-24T07:46:50.054Z,58.23
2022-11-24T07:49:18.004Z,57.90
2022-11-24T07:51:45.324Z,57.68
2022-11-24T07:54:12.518Z,57.43
2022-11-24T07:56:39.536Z,57.28
2022-11-24T07:59:06.659Z,56.72
2022-11-24T08:01:33.721Z,56.78
2022-11-24T08:04:02.508Z,56.64
2022-11-24T08:06:36.307Z,56.61
2022-11-24T08:09:06.680Z,56.39
2022-11-24T08:11:34.593Z,56.21
2022-11-24T08:14:01.661Z,55.93
2022-11-24T08:16:28.726Z,55.74
2022-11-24T08:18:56.389Z,56.17
2022-11-24T08:21:24.472Z,55.87
2022-11-24T08:23:57.808Z,56.14
2022-11-24T08:26:26.001Z,55.38
2022-11-24T08:29:02.180Z,54.97
2022-11-24T08:31:33.912Z,55.59
2022-11-24T08:34:03.020Z,55.46
2022-11-24T08:36:30.309Z,54.86
2022-11-24T08:38:59.520Z,54.49
2022-11-24T08:41:28.233Z,54.65
2022-11-24T08:43:56.231Z,55.05
2022-11-24T08:46:24.013Z,55.31
2022-11-24T08:48:55.289Z,56.13
2022-11-24T08:51:26.079Z,56.67
2022-11-24T08:54:01.599Z,56.15
2022-11-24T08:56:31.917Z,56.61
2022-11-24T08:59:00.270Z,56.89
2022-11-24T09:01:28.421Z,56.87
2022-11-24T09:03:55.926Z,56.94
2022-11-24T09:06:27.371Z,57.23
2022-11-24T09:08:55.747Z,57.08
2022-11-24T09:11:24.254Z,57.33
2022-11-24T09:13:51.853Z,57.76
2022-11-24T09:16:29.065Z,57.65
2022-11-24T09:19:02.664Z,57.32
2022-11-24T09:21:31.164Z,57.45
2022-11-24T09:23:58.512Z,56.83
2022-11-24T09:26:29.225Z,57.32
2022-11-24T09:28:58.671Z,57.22
2022-11-24T09:31:29.484Z,56.57
2022-11-24T09:33:57.177Z,56.35
2022-11-24T09:36:28.035Z,56.46
2022-11-24T09:38:55.671Z,56.47
2022-11-24T09:42:15.117Z,55.58
2022-11-24T09:45:19.980Z,54.60
2022-11-24T09:48:08.768Z,54.30
2022-11-24T09:50:37.972Z,54.31
2022-11-24T09:53:30.182Z,54.17
2022-11-24T09:56:11.201Z,53.90
2022-11-24T09:58:48.351Z,53.50
2022-11-24T10:01:38.054Z,53.55
2022-11-24T10:04:14.600Z,54.50
2022-11-24T10:06:55.276Z,54.35
2022-11-24T10:09:40.292Z,54.28
2022-11-24T10:12:28.225Z,54.42
2022-11-24T10:15:32.110Z,55.20
2022-11-24T10:18:34.323Z,54.89
2022-11-24T10:21:25.549Z,55.42
2022-11-24T10:24:10.552Z,55.45
2022-11-24T10:26:40.923Z,54.99
2022-11-24T10:29:29.115Z,55.00
2022-11-24T10:31:57.250Z,55.12
2022-11-24T10:34:34.585Z,54.44
2022-11-24T10:37:06.981Z,54.91
2022-11-24T10:40:01.318Z,55.09
2022-11-24T10:42:32.378Z,54.86
2022-11-24T10:45:22.203Z,54.82
2022-11-24T10:47:50.635Z,55.34
2022-11-24T10:50:31.818Z,55.63
2022-11-24T10:53:14.058Z,54.75
2022-11-24T10:55:56.501Z,55.01
2022-11-24T10:58:38.204Z,54.44
2022-11-24T11:01:14.868Z,54.92
2022-11-24T11:04:01.627Z,55.11
2022-11-24T11:06:32.677Z,54.93
2022-11-24T11:09:21.746Z,55.55
2022-11-24T11:11:53.341Z,55.34
2022-11-24T11:14:35.568Z,54.73
2022-11-24T11:17:03.716Z,55.05
2022-11-24T11:19:49.533Z,55.60
2022-11-24T11:22:27.454Z,55.85
2022-11-24T11:25:14.452Z,55.11
2022-11-24T11:27:42.517Z,55.67
2022-11-24T11:36:15.701Z,56.67
2022-11-24T11:38:45.298Z,56.54
2022-11-24T11:41:40.671Z,55.84
2022-11-24T11:44:22.625Z,56.57
2022-11-24T11:46:49.750Z,56.91
2022-11-24T11:49:16.934Z,56.73
2022-11-24T11:52:03.717Z,56.59
2022-11-24T11:54:38.152Z,56.31
2022-11-24T11:57:29.275Z,55.70
2022-11-24T12:00:16.161Z,55.42
2022-11-24T12:03:16.316Z,56.04
2022-11-24T12:06:09.215Z,56.22
2022-11-24T12:12:27.130Z,56.07
2022-11-24T12:15:11.145Z,55.93
2022-11-24T12:17:58.367Z,55.64
2022-11-24T12:20:53.179Z,55.79
2022-11-24T12:23:45.146Z,55.08
2022-11-24T12:26:39.740Z,54.79
2022-11-24T12:29:39.098Z,54.33
2022-11-24T12:33:03.713Z,53.98
2022-11-24T12:35:37.260Z,52.32
2022-11-24T12:38:34.471Z,52.51
2022-11-24T12:41:49.078Z,52.97
2022-11-24T12:45:13.686Z,52.76
2022-11-24T12:48:17.780Z,52.65
2022-11-24T12:50:46.424Z,53.61
2022-11-24T12:53:25.641Z,53.83
2022-11-24T12:55:55.018Z,53.20
2022-11-24T12:59:10.222Z,53.57
2022-11-24T13:01:47.680Z,53.75
2022-11-24T13:04:38.054Z,53.58
2022-11-24T13:07:12.994Z,53.85
2022-11-24T13:13:14.022Z,53.07
2022-11-24T13:19:14.410Z,53.02
2022-11-24T13:21:45.523Z,52.40
2022-11-24T13:24:19.785Z,51.80
2022-11-24T13:26:50.015Z,51.03
2022-11-24T13:29:37.095Z,50.20
2022-11-24T13:32:09.474Z,50.97
2022-11-24T13:34:39.705Z,51.51
2022-11-24T13:37:31.785Z,51.86
2022-11-24T13:40:31.635Z,52.07
2022-11-24T13:43:01.322Z,52.56
2022-11-24T13:45:49.922Z,53.09
2022-11-24T13:48:20.538Z,52.56
2022-11-24T13:51:21.506Z,52.77
2022-11-24T13:53:49.881Z,53.40
2022-11-24T13:56:16.889Z,53.94
2022-11-24T13:58:59.266Z,54.51
2022-11-24T14:01:40.887Z,54.77
2022-11-24T14:04:32.607Z,54.73
2022-11-24T14:07:08.793Z,55.62
2022-11-24T14:09:52.310Z,56.44
2022-11-24T14:12:26.850Z,56.35
2022-11-24T14:15:23.665Z,56.76
2022-11-24T14:17:50.791Z,57.01
2022-11-24T14:20:25.726Z,56.93
2022-11-24T14:22:54.086Z,56.91
2022-11-24T14:25:31.351Z,56.52
2022-11-24T14:28:00.648Z,56.58
2022-11-24T14:30:27.978Z,56.72
2022-11-24T14:33:01.234Z,57.19
2022-11-24T14:35:35.801Z,56.95
2022-11-24T14:38:05.862Z,57.54
2022-11-24T14:40:53.572Z,57.93
2022-11-24T14:43:30.124Z,58.20
2022-11-24T14:46:06.264Z,58.73
2022-11-24T14:48:39.849Z,58.75
2022-11-24T14:51:19.979Z,58.90
2022-11-24T14:53:52.900Z,58.84
2022-11-24T14:56:30.919Z,58.97
2022-11-24T14:58:59.313Z,58.96
2022-11-24T15:01:34.568Z,59.36
2022-11-24T15:04:54.408Z,59.60
2022-11-24T15:07:26.595Z,59.74
2022-11-24T15:09:59.328Z,60.00
2022-11-24T15:12:34.468Z,60.29
2022-11-24T15:15:13.755Z,59.50
2022-11-24T15:17:58.821Z,58.93
2022-11-24T15:20:45.767Z,59.01
2022-11-24T15:23:32.149Z,59.69
2022-11-24T15:26:02.247Z,59.86
2022-11-24T15:28:31.498Z,60.16
2022-11-24T15:31:09.240Z,60.26
2022-11-24T15:33:36.762Z,60.43
2022-11-24T15:36:04.205Z,60.23
2022-11-24T15:38:31.512Z,59.38
2022-11-24T15:41:00.817Z,59.67
2022-11-24T15:43:40.421Z,59.95
2022-11-24T15:46:09.123Z,60.52
2022-11-24T15:48:36.491Z,61.05
2022-11-24T15:51:07.167Z,61.17
2022-11-24T15:53:46.077Z,61.22
2022-11-24T15:56:22.088Z,61.15
2022-11-24T15:58:49.267Z,61.37
2022-11-24T16:01:16.402Z,61.80
2022-11-24T16:03:48.643Z,61.91
2022-11-24T16:06:24.651Z,62.16
2022-11-24T16:08:54.000Z,62.27
2022-11-24T16:11:22.533Z,62.41
2022-11-24T16:13:53.906Z,62.69
2022-11-24T16:16:23.464Z,62.71
2022-11-24T16:18:50.806Z,62.81
2022-11-24T16:21:17.871Z,62.69
2022-11-24T16:23:45.677Z,62.59
2022-11-24T16:26:12.757Z,62.32
2022-11-24T16:28:40.691Z,62.10
2022-11-24T16:31:07.818Z,62.26
2022-11-24T16:33:41.827Z,62.51
2022-11-24T16:36:09.359Z,62.08
2022-11-24T16:38:36.547Z,62.05
2022-11-24T16:41:04.014Z,61.83
2022-11-24T16:43:31.190Z,62.19
2022-11-24T16:46:19.535Z,61.96
2022-11-24T16:48:49.777Z,61.70
2022-11-24T16:51:19.202Z,61.97
2022-11-24T16:53:46.903Z,62.08
2022-11-24T16:56:16.171Z,62.33
2022-11-24T16:58:43.393Z,62.24
2022-11-24T17:01:13.534Z,62.16
2022-11-24T17:03:41.455Z,62.42
2022-11-24T17:06:12.418Z,62.28
2022-11-24T17:08:40.930Z,61.52
2022-11-24T17:11:18.429Z,61.13
2022-11-24T17:13:47.203Z,61.08
2022-11-24T17:16:20.621Z,60.91
2022-11-24T17:18:48.737Z,61.38
2022-11-24T17:21:24.283Z,61.71
2022-11-24T17:24:00.373Z,61.61
2022-11-24T17:26:28.491Z,61.12
2022-11-24T17:28:56.317Z,61.28
2022-11-24T17:31:35.878Z,61.46
2022-11-24T17:34:04.963Z,61.73
2022-11-24T17:36:33.750Z,61.80
2022-11-24T17:39:04.605Z,61.78
2022-11-24T17:41:32.754Z,61.10
2022-11-24T17:44:00.097Z,61.46
2022-11-24T17:46:29.406Z,61.84
2022-11-24T17:48:57.000Z,61.78
2022-11-24T17:51:26.405Z,61.64
2022-11-24T17:53:54.914Z,62.04
2022-11-24T17:56:25.068Z,61.62
2022-11-24T17:58:57.685Z,61.88
2022-11-24T18:01:26.236Z,62.30
2022-11-24T18:03:54.324Z,62.75
2022-11-24T18:06:25.298Z,62.85
2022-11-24T18:08:54.162Z,62.68
2022-11-24T18:11:32.191Z,62.09
2022-11-24T18:14:03.222Z,62.51
2022-11-24T18:16:35.102Z,62.53
2022-11-24T18:19:09.130Z,62.62
2022-11-24T18:21:39.428Z,62.78
2022-11-24T18:24:11.347Z,62.17
2022-11-24T18:26:40.281Z,61.61
2022-11-24T18:29:07.945Z,61.47
2022-11-24T18:31:36.201Z,61.77
2022-11-24T18:34:05.532Z,61.68
2022-11-24T18:36:33.379Z,61.45
2022-11-24T18:39:02.931Z,61.41
2022-11-24T18:41:30.185Z,61.52
2022-11-24T18:43:57.249Z,61.46
2022-11-24T18:46:24.454Z,60.86
2022-11-24T18:48:53.174Z,60.55
2022-11-24T18:51:22.718Z,60.47
2022-11-24T18:53:54.613Z,60.85
2022-11-24T18:56:22.021Z,60.98
2022-11-24T18:58:53.603Z,61.15
2022-11-24T19:01:24.402Z,60.80
2022-11-24T19:03:55.212Z,60.69
2022-11-24T19:06:34.541Z,61.19
2022-11-24T19:09:14.822Z,61.59
2022-11-24T19:11:44.972Z,61.70
2022-11-24T19:14:16.095Z,61.96
2022-11-24T19:16:44.202Z,62.08
2022-11-24T19:19:12.861Z,61.75
2022-11-24T19:21:41.107Z,61.83
2022-11-24T19:24:16.007Z,61.44
2022-11-24T19:26:43.094Z,61.45
2022-11-24T19:29:10.344Z,61.67
2022-11-24T19:31:39.402Z,61.91
2022-11-24T19:34:08.076Z,61.82
2022-11-24T19:36:35.782Z,62.26
2022-11-24T19:39:04.914Z,62.64
2022-11-24T19:41:33.491Z,62.69
2022-11-24T19:44:00.581Z,62.42
2022-11-24T19:46:29.721Z,61.97
2022-11-24T19:49:00.731Z,60.68
2022-11-24T19:51:31.356Z,61.08
2022-11-24T19:53:58.945Z,61.36
2022-11-24T19:56:29.172Z,61.73
2022-11-24T19:58:56.570Z,62.38
2022-11-24T20:01:31.518Z,62.46
2022-11-24T20:04:05.363Z,61.54
2022-11-24T20:06:39.122Z,61.33
2022-11-24T20:09:12.499Z,61.18
2022-11-24T20:11:40.643Z,60.72
2022-11-24T20:14:11.269Z,60.67
2022-11-24T20:16:38.325Z,60.83
2022-11-24T20:19:10.284Z,60.28
2022-11-24T20:21:39.227Z,60.17
2022-11-24T20:24:16.912Z,60.02
2022-11-24T20:26:51.391Z,60.39
2022-11-24T20:29:18.937Z,60.85
2022-11-24T20:31:50.909Z,60.60
2022-11-24T20:34:18.906Z,60.87
2022-11-24T20:36:47.640Z,61.12
2022-11-24T20:39:22.578Z,61.29
2022-11-24T20:41:49.684Z,61.04
2022-11-24T20:44:19.086Z,60.69
2022-11-24T20:46:47.634Z,60.65
2022-11-24T20:49:18.400Z,61.14
2022-11-24T20:51:49.170Z,61.23
2022-11-24T20:54:18.186Z,61.69
2022-11-24T20:56:46.989Z,61.50
2022-11-24T20:59:18.877Z,60.94
2022-11-24T21:01:47.105Z,60.81
2022-11-24T21:04:19.733Z,60.70
2022-11-24T21:06:47.515Z,60.87
2022-11-24T21:09:14.711Z,61.08
2022-11-24T21:11:42.597Z,61.34
2022-11-24T21:14:10.810Z,61.21
2022-11-24T21:16:40.652Z,61.29
2022-11-24T21:19:12.267Z,61.07
2022-11-24T21:21:42.453Z,61.03
2022-11-24T21:24:15.583Z,61.03
2022-11-24T21:26:44.328Z,60.92
2022-11-24T21:29:18.837Z,60.83
2022-11-24T21:31:46.167Z,60.96
2022-11-24T21:34:19.136Z,60.96
2022-11-24T21:36:47.294Z,60.96
2022-11-24T21:39:15.567Z,61.02
2022-11-24T21:41:43.428Z,61.04
2022-11-24T21:44:14.389Z,61.21
2022-11-24T21:46:48.333Z,61.23
2022-11-24T21:49:18.264Z,60.65
2022-11-24T21:51:45.326Z,61.31
2022-11-24T21:54:12.400Z,61.23
2022-11-24T21:56:39.454Z,61.32
2022-11-24T21:59:06.467Z,61.37
2022-11-24T22:01:33.637Z,60.86
2022-11-24T22:04:00.775Z,60.77
2022-11-24T22:06:27.889Z,60.72
2022-11-24T22:08:55.396Z,60.65
2022-11-24T22:11:25.131Z,60.46
2022-11-24T22:13:53.080Z,60.68
2022-11-24T22:16:23.552Z,60.69
2022-11-24T22:18:51.354Z,60.76
2022-11-24T22:21:29.995Z,60.49
2022-11-24T22:23:57.460Z,60.19
2022-11-24T22:26:25.132Z,60.17
2022-11-24T22:28:53.903Z,60.36
2022-11-24T22:31:23.378Z,60.70
2022-11-24T22:33:51.983Z,61.03
2022-11-24T22:36:21.812Z,61.14
2022-11-24T22:38:58.097Z,61.22
2022-11-24T22:41:25.572Z,61.43
2022-11-24T22:43:53.878Z,61.43
2022-11-24T22:46:24.930Z,61.19
2022-11-24T22:48:54.065Z,61.46
2022-11-24T22:51:26.221Z,61.39
2022-11-24T22:53:56.662Z,61.45
2022-11-24T22:56:24.901Z,61.66
2022-11-24T22:58:52.057Z,61.68
2022-11-24T23:01:22.897Z,61.60
2022-11-24T23:03:53.640Z,61.86
2022-11-24T23:06:24.591Z,61.73
2022-11-24T23:08:52.679Z,61.73
2022-11-24T23:11:31.560Z,62.11
2022-11-24T23:14:03.082Z,62.43
2022-11-24T23:16:30.940Z,62.43
2022-11-24T23:18:58.560Z,62.90
2022-11-24T23:21:31.774Z,62.91
2022-11-24T23:24:01.521Z,63.18
2022-11-24T23:26:33.033Z,63.28
2022-11-24T23:29:00.474Z,63.49
2022-11-24T23:31:29.146Z,63.27
2022-11-24T23:34:02.222Z,63.35
2022-11-24T23:36:30.710Z,63.19
2022-11-24T23:39:03.888Z,63.04
2022-11-24T23:41:31.934Z,63.38
2022-11-24T23:44:00.110Z,63.11
2022-11-24T23:46:28.776Z,63.11
2022-11-24T23:48:56.845Z,63.04
2022-11-24T23:51:27.274Z,63.07
2022-11-24T23:53:55.726Z,63.02
2022-11-24T23:56:32.540Z,62.74
2022-11-24T23:59:02.130Z,62.60
